sensor_id;sensor_type;location;lat;lon;timestamp;P1;P2;P0
33948;PMS7003;20229;49.856;19.030;2023-02-18T00:00:23;30;27;23
33948;PMS7003;20229;49.856;19.030;2023-02-18T00:05:32;34;29;24
33948;PMS7003;20229;49.856;19.030;2023-02-18T00:10:49;33;29;24
33948;PMS7003;20229;49.856;19.030;2023-02-18T00:15:52;27;26;21
33948;PMS7003;20229;49.856;19.030;2023-02-18T00:21:15;30;26;22
33948;PMS7003;20229;49.856;19.030;2023-02-18T00:26:19;26;24;20
33948;PMS7003;20229;49.856;19.030;2023-02-18T00:31:40;26;25;21
33948;PMS7003;20229;49.856;19.030;2023-02-18T00:36:44;27;23;19
33948;PMS7003;20229;49.856;19.030;2023-02-18T00:42:06;23;22;18
33948;PMS7003;20229;49.856;19.030;2023-02-18T00:47:09;24;22;19
33948;PMS7003;20229;49.856;19.030;2023-02-18T00:52:32;25;24;19
33948;PMS7003;20229;49.856;19.030;2023-02-18T00:57:35;18;17;14
33948;PMS7003;20229;49.856;19.030;2023-02-18T01:02:57;23;23;19
33948;PMS7003;20229;49.856;19.030;2023-02-18T01:08:01;21;21;18
33948;PMS7003;20229;49.856;19.030;2023-02-18T01:13:23;17;16;15
33948;PMS7003;20229;49.856;19.030;2023-02-18T01:18:28;22;20;17
33948;PMS7003;20229;49.856;19.030;2023-02-18T01:23:49;20;18;16
33948;PMS7003;20229;49.856;19.030;2023-02-18T01:28:52;22;19;16
33948;PMS7003;20229;49.856;19.030;2023-02-18T01:34:14;23;22;19
33948;PMS7003;20229;49.856;19.030;2023-02-18T01:39:18;18;17;15
33948;PMS7003;20229;49.856;19.030;2023-02-18T01:44:40;25;23;20
33948;PMS7003;20229;49.856;19.030;2023-02-18T01:49:47;20;19;17
33948;PMS7003;20229;49.856;19.030;2023-02-18T01:55:05;23;22;18
33948;PMS7003;20229;49.856;19.030;2023-02-18T02:00:10;26;23;19
33948;PMS7003;20229;49.856;19.030;2023-02-18T02:05:32;19;19;17
33948;PMS7003;20229;49.856;19.030;2023-02-18T02:10:40;20;19;17
33948;PMS7003;20229;49.856;19.030;2023-02-18T02:16:16;20;19;17
33948;PMS7003;20229;49.856;19.030;2023-02-18T02:47:26;15;13;8
33948;PMS7003;20229;49.856;19.030;2023-02-18T02:52:40;12;10;4
33948;PMS7003;20229;49.856;19.030;2023-02-18T02:57:51;42;39;31
33948;PMS7003;20229;49.856;19.030;2023-02-18T03:18:46;26;24;18
33948;PMS7003;20229;49.856;19.030;2023-02-18T03:23:57;29;27;19
33948;PMS7003;20229;49.856;19.030;2023-02-18T03:29:05;29;26;19
33948;PMS7003;20229;49.856;19.030;2023-02-18T03:34:11;33;28;19
33948;PMS7003;20229;49.856;19.030;2023-02-18T03:39:23;30;26;17
33948;PMS7003;20229;49.856;19.030;2023-02-18T03:44:30;32;29;19
33948;PMS7003;20229;49.856;19.030;2023-02-18T03:49:49;39;34;20
33948;PMS7003;20229;49.856;19.030;2023-02-18T03:54:52;42;35;21
33948;PMS7003;20229;49.856;19.030;2023-02-18T04:00:14;35;29;19
33948;PMS7003;20229;49.856;19.030;2023-02-18T04:05:18;32;28;18
33948;PMS7003;20229;49.856;19.030;2023-02-18T04:10:40;33;29;20
33948;PMS7003;20229;49.856;19.030;2023-02-18T04:15:44;24;21;17
33948;PMS7003;20229;49.856;19.030;2023-02-18T04:21:06;12;12;10
33948;PMS7003;20229;49.856;19.030;2023-02-18T04:26:10;15;14;13
33948;PMS7003;20229;49.856;19.030;2023-02-18T04:31:32;9;7;6
33948;PMS7003;20229;49.856;19.030;2023-02-18T04:36:35;20;20;17
33948;PMS7003;20229;49.856;19.030;2023-02-18T04:41:58;26;23;20
33948;PMS7003;20229;49.856;19.030;2023-02-18T04:47:01;19;18;16
33948;PMS7003;20229;49.856;19.030;2023-02-18T04:52:23;27;24;21
33948;PMS7003;20229;49.856;19.030;2023-02-18T04:57:27;30;29;24
33948;PMS7003;20229;49.856;19.030;2023-02-18T05:02:49;17;17;15
33948;PMS7003;20229;49.856;19.030;2023-02-18T05:07:52;14;13;12
33948;PMS7003;20229;49.856;19.030;2023-02-18T05:13:15;32;31;26
33948;PMS7003;20229;49.856;19.030;2023-02-18T05:18:18;23;21;20
33948;PMS7003;20229;49.856;19.030;2023-02-18T05:23:41;33;32;27
33948;PMS7003;20229;49.856;19.030;2023-02-18T05:28:44;46;40;32
33948;PMS7003;20229;49.856;19.030;2023-02-18T05:34:06;47;41;33
33948;PMS7003;20229;49.856;19.030;2023-02-18T05:39:10;50;42;35
33948;PMS7003;20229;49.856;19.030;2023-02-18T05:44:32;43;37;31
33948;PMS7003;20229;49.856;19.030;2023-02-18T05:49:36;49;42;35
33948;PMS7003;20229;49.856;19.030;2023-02-18T05:54:58;51;43;37
33948;PMS7003;20229;49.856;19.030;2023-02-18T06:00:02;51;44;37
33948;PMS7003;20229;49.856;19.030;2023-02-18T06:05:24;45;40;36
33948;PMS7003;20229;49.856;19.030;2023-02-18T06:10:28;52;46;40
33948;PMS7003;20229;49.856;19.030;2023-02-18T06:15:50;72;66;60
33948;PMS7003;20229;49.856;19.030;2023-02-18T06:20:54;64;56;50
33948;PMS7003;20229;49.856;19.030;2023-02-18T06:26:16;66;64;59
33948;PMS7003;20229;49.856;19.030;2023-02-18T06:31:19;74;72;67
33948;PMS7003;20229;49.856;19.030;2023-02-18T06:36:41;53;50;48
33948;PMS7003;20229;49.856;19.030;2023-02-18T06:41:45;30;30;29
33948;PMS7003;20229;49.856;19.030;2023-02-18T06:47:07;8;8;7
33948;PMS7003;20229;49.856;19.030;2023-02-18T06:52:10;7;6;6
33948;PMS7003;20229;49.856;19.030;2023-02-18T06:57:33;4;3;3
33948;PMS7003;20229;49.856;19.030;2023-02-18T07:02:37;9;9;7
33948;PMS7003;20229;49.856;19.030;2023-02-18T07:07:59;11;10;8
33948;PMS7003;20229;49.856;19.030;2023-02-18T07:13:02;20;19;16
33948;PMS7003;20229;49.856;19.030;2023-02-18T07:18:24;19;17;15
33948;PMS7003;20229;49.856;19.030;2023-02-18T07:23:28;35;31;26
33948;PMS7003;20229;49.856;19.030;2023-02-18T07:28:50;24;23;20
33948;PMS7003;20229;49.856;19.030;2023-02-18T07:33:54;20;19;17
33948;PMS7003;20229;49.856;19.030;2023-02-18T07:39:16;16;14;13
33948;PMS7003;20229;49.856;19.030;2023-02-18T07:44:22;11;11;9
33948;PMS7003;20229;49.856;19.030;2023-02-18T07:49:42;31;28;24
33948;PMS7003;20229;49.856;19.030;2023-02-18T07:54:45;17;17;17
33948;PMS7003;20229;49.856;19.030;2023-02-18T08:00:08;17;15;13
33948;PMS7003;20229;49.856;19.030;2023-02-18T08:05:12;40;36;31
33948;PMS7003;20229;49.856;19.030;2023-02-18T08:10:33;43;37;32
33948;PMS7003;20229;49.856;19.030;2023-02-18T08:15:37;46;40;33
33948;PMS7003;20229;49.856;19.030;2023-02-18T08:20:59;18;17;17
33948;PMS7003;20229;49.856;19.030;2023-02-18T08:26:02;43;38;32
33948;PMS7003;20229;49.856;19.030;2023-02-18T08:31:26;38;33;30
33948;PMS7003;20229;49.856;19.030;2023-02-18T08:36:31;48;41;36
33948;PMS7003;20229;49.856;19.030;2023-02-18T08:41:51;45;39;34
33948;PMS7003;20229;49.856;19.030;2023-02-18T08:46:54;53;45;41
33948;PMS7003;20229;49.856;19.030;2023-02-18T08:52:17;44;38;32
33948;PMS7003;20229;49.856;19.030;2023-02-18T08:57:20;50;44;40
33948;PMS7003;20229;49.856;19.030;2023-02-18T09:02:43;48;41;35
33948;PMS7003;20229;49.856;19.030;2023-02-18T09:07:47;59;51;47
33948;PMS7003;20229;49.856;19.030;2023-02-18T09:13:09;69;64;60
33948;PMS7003;20229;49.856;19.030;2023-02-18T09:18:12;68;63;60
33948;PMS7003;20229;49.856;19.030;2023-02-18T09:23:35;62;51;45
33948;PMS7003;20229;49.856;19.030;2023-02-18T09:29:13;62;55;52
33948;PMS7003;20229;49.856;19.030;2023-02-18T09:34:39;62;55;52
33948;PMS7003;20229;49.856;19.030;2023-02-18T09:39:42;59;50;46
33948;PMS7003;20229;49.856;19.030;2023-02-18T09:45:06;70;64;59
33948;PMS7003;20229;49.856;19.030;2023-02-18T09:50:18;71;66;62
33948;PMS7003;20229;49.856;19.030;2023-02-18T09:55:32;54;44;39
33948;PMS7003;20229;49.856;19.030;2023-02-18T10:00:44;56;48;43
33948;PMS7003;20229;49.856;19.030;2023-02-18T10:06:01;52;45;39
33948;PMS7003;20229;49.856;19.030;2023-02-18T10:11:11;63;53;47
33948;PMS7003;20229;49.856;19.030;2023-02-18T10:16:23;64;54;46
33948;PMS7003;20229;49.856;19.030;2023-02-18T10:21:28;63;54;48
33948;PMS7003;20229;49.856;19.030;2023-02-18T10:26:48;80;72;66
33948;PMS7003;20229;49.856;19.030;2023-02-18T10:31:56;77;68;63
33948;PMS7003;20229;49.856;19.030;2023-02-18T10:37:24;17;16;14
33948;PMS7003;20229;49.856;19.030;2023-02-18T10:47:57;11;9;8
33948;PMS7003;20229;49.856;19.030;2023-02-18T11:03:41;62;58;51
33948;PMS7003;20229;49.856;19.030;2023-02-18T11:08:46;69;63;56
33948;PMS7003;20229;49.856;19.030;2023-02-18T11:13:55;63;58;50
33948;PMS7003;20229;49.856;19.030;2023-02-18T11:19:01;65;59;51
33948;PMS7003;20229;49.856;19.030;2023-02-18T11:24:13;72;65;57
33948;PMS7003;20229;49.856;19.030;2023-02-18T11:29:24;68;66;61
33948;PMS7003;20229;49.856;19.030;2023-02-18T11:34:33;76;71;64
33948;PMS7003;20229;49.856;19.030;2023-02-18T11:39:51;63;57;50
33948;PMS7003;20229;49.856;19.030;2023-02-18T11:44:57;56;50;43
33948;PMS7003;20229;49.856;19.030;2023-02-18T11:50:16;48;40;34
33948;PMS7003;20229;49.856;19.030;2023-02-18T11:55:25;48;41;36
33948;PMS7003;20229;49.856;19.030;2023-02-18T12:00:42;47;40;34
33948;PMS7003;20229;49.856;19.030;2023-02-18T12:05:48;53;45;40
33948;PMS7003;20229;49.856;19.030;2023-02-18T12:11:11;67;62;58
33948;PMS7003;20229;49.856;19.030;2023-02-18T12:16:20;69;63;59
33948;PMS7003;20229;49.856;19.030;2023-02-18T12:21:39;59;54;51
33948;PMS7003;20229;49.856;19.030;2023-02-18T12:32:08;89;86;83
33948;PMS7003;20229;49.856;19.030;2023-02-18T12:42:39;67;61;55
33948;PMS7003;20229;49.856;19.030;2023-02-18T12:47:55;54;45;40
33948;PMS7003;20229;49.856;19.030;2023-02-18T13:03:43;37;35;29
33948;PMS7003;20229;49.856;19.030;2023-02-18T13:24:35;47;43;35
33948;PMS7003;20229;49.856;19.030;2023-02-18T13:40:16;40;30;22
33948;PMS7003;20229;49.856;19.030;2023-02-18T13:45:26;58;48;38
33948;PMS7003;20229;49.856;19.030;2023-02-18T13:50:39;66;55;44
33948;PMS7003;20229;49.856;19.030;2023-02-18T13:55:49;66;54;43
33948;PMS7003;20229;49.856;19.030;2023-02-18T14:01:03;68;56;45
33948;PMS7003;20229;49.856;19.030;2023-02-18T14:06:13;46;40;33
33948;PMS7003;20229;49.856;19.030;2023-02-18T14:21:46;44;40;31
33948;PMS7003;20229;49.856;19.030;2023-02-18T14:26:50;39;30;15
33948;PMS7003;20229;49.856;19.030;2023-02-18T14:32:01;33;27;18
33948;PMS7003;20229;49.856;19.030;2023-02-18T14:52:58;42;34;26
33948;PMS7003;20229;49.856;19.030;2023-02-18T14:58:10;48;38;32
33948;PMS7003;20229;49.856;19.030;2023-02-18T15:03:21;68;62;53
33948;PMS7003;20229;49.856;19.030;2023-02-18T15:08:28;64;59;52
33948;PMS7003;20229;49.856;19.030;2023-02-18T15:13:42;74;66;52
33948;PMS7003;20229;49.856;19.030;2023-02-18T15:18:58;53;43;36
33948;PMS7003;20229;49.856;19.030;2023-02-18T15:24:06;55;50;45
33948;PMS7003;20229;49.856;19.030;2023-02-18T15:29:24;58;53;46
33948;PMS7003;20229;49.856;19.030;2023-02-18T15:34:34;59;54;50
33948;PMS7003;20229;49.856;19.030;2023-02-18T15:39:47;72;67;57
33948;PMS7003;20229;49.856;19.030;2023-02-18T15:44:51;70;69;59
33948;PMS7003;20229;49.856;19.030;2023-02-18T15:50:17;54;50;44
33948;PMS7003;20229;49.856;19.030;2023-02-18T15:55:26;63;60;51
33948;PMS7003;20229;49.856;19.030;2023-02-18T16:00:47;62;57;48
33948;PMS7003;20229;49.856;19.030;2023-02-18T16:05:51;64;59;51
33948;PMS7003;20229;49.856;19.030;2023-02-18T16:11:09;54;49;42
33948;PMS7003;20229;49.856;19.030;2023-02-18T16:21:31;50;43;38
33948;PMS7003;20229;49.856;19.030;2023-02-18T16:26:41;43;36;27
33948;PMS7003;20229;49.856;19.030;2023-02-18T16:31:56;33;29;21
33948;PMS7003;20229;49.856;19.030;2023-02-18T16:37:00;37;32;24
33948;PMS7003;20229;49.856;19.030;2023-02-18T16:42:22;46;39;33
33948;PMS7003;20229;49.856;19.030;2023-02-18T16:47:26;52;44;37
33948;PMS7003;20229;49.856;19.030;2023-02-18T16:52:48;49;42;32
33948;PMS7003;20229;49.856;19.030;2023-02-18T16:57:52;42;39;30
33948;PMS7003;20229;49.856;19.030;2023-02-18T17:03:14;38;33;25
33948;PMS7003;20229;49.856;19.030;2023-02-18T17:08:19;29;24;18
33948;PMS7003;20229;49.856;19.030;2023-02-18T17:13:40;7;6;2
33948;PMS7003;20229;49.856;19.030;2023-02-18T17:18:43;15;12;9
33948;PMS7003;20229;49.856;19.030;2023-02-18T17:24:08;34;27;21
33948;PMS7003;20229;49.856;19.030;2023-02-18T17:29:17;20;17;13
33948;PMS7003;20229;49.856;19.030;2023-02-18T17:34:32;13;10;5
33948;PMS7003;20229;49.856;19.030;2023-02-18T17:39:39;31;28;21
33948;PMS7003;20229;49.856;19.030;2023-02-18T17:44:58;47;38;29
33948;PMS7003;20229;49.856;19.030;2023-02-18T17:50:04;41;35;26
33948;PMS7003;20229;49.856;19.030;2023-02-18T17:55:28;40;34;25
33948;PMS7003;20229;49.856;19.030;2023-02-18T18:00:38;41;36;26
33948;PMS7003;20229;49.856;19.030;2023-02-18T18:05:49;39;35;23
33948;PMS7003;20229;49.856;19.030;2023-02-18T18:10:58;37;32;23
33948;PMS7003;20229;49.856;19.030;2023-02-18T18:16:15;34;32;25
33948;PMS7003;20229;49.856;19.030;2023-02-18T18:21:21;37;34;26
33948;PMS7003;20229;49.856;19.030;2023-02-18T18:26:40;37;33;25
33948;PMS7003;20229;49.856;19.030;2023-02-18T18:31:44;38;34;24
33948;PMS7003;20229;49.856;19.030;2023-02-18T18:37:06;34;29;22
33948;PMS7003;20229;49.856;19.030;2023-02-18T18:42:11;29;25;18
33948;PMS7003;20229;49.856;19.030;2023-02-18T18:47:32;34;30;22
33948;PMS7003;20229;49.856;19.030;2023-02-18T18:52:35;32;27;20
33948;PMS7003;20229;49.856;19.030;2023-02-18T18:57:58;21;16;8
33948;PMS7003;20229;49.856;19.030;2023-02-18T19:03:02;36;30;21
33948;PMS7003;20229;49.856;19.030;2023-02-18T19:08:23;40;33;24
33948;PMS7003;20229;49.856;19.030;2023-02-18T19:13:28;31;27;18
33948;PMS7003;20229;49.856;19.030;2023-02-18T19:18:49;28;25;20
33948;PMS7003;20229;49.856;19.030;2023-02-18T19:23:54;24;22;15
33948;PMS7003;20229;49.856;19.030;2023-02-18T19:29:17;35;30;20
33948;PMS7003;20229;49.856;19.030;2023-02-18T19:34:24;24;22;17
33948;PMS7003;20229;49.856;19.030;2023-02-18T19:39:41;29;27;19
33948;PMS7003;20229;49.856;19.030;2023-02-18T19:44:44;34;29;21
33948;PMS7003;20229;49.856;19.030;2023-02-18T19:50:07;28;25;19
33948;PMS7003;20229;49.856;19.030;2023-02-18T19:55:11;24;22;16
33948;PMS7003;20229;49.856;19.030;2023-02-18T20:00:32;29;26;19
33948;PMS7003;20229;49.856;19.030;2023-02-18T20:05:36;29;26;18
33948;PMS7003;20229;49.856;19.030;2023-02-18T20:10:58;30;26;18
33948;PMS7003;20229;49.856;19.030;2023-02-18T20:16:04;107;85;49
33948;PMS7003;20229;49.856;19.030;2023-02-18T20:21:23;38;32;23
33948;PMS7003;20229;49.856;19.030;2023-02-18T20:26:28;38;33;24
33948;PMS7003;20229;49.856;19.030;2023-02-18T20:31:49;33;29;21
33948;PMS7003;20229;49.856;19.030;2023-02-18T20:36:52;31;27;20
33948;PMS7003;20229;49.856;19.030;2023-02-18T20:42:15;40;32;23
33948;PMS7003;20229;49.856;19.030;2023-02-18T20:47:18;37;30;22
33948;PMS7003;20229;49.856;19.030;2023-02-18T20:52:40;39;33;24
33948;PMS7003;20229;49.856;19.030;2023-02-18T20:57:44;35;31;23
33948;PMS7003;20229;49.856;19.030;2023-02-18T21:03:06;41;34;25
33948;PMS7003;20229;49.856;19.030;2023-02-18T21:08:11;40;33;26
33948;PMS7003;20229;49.856;19.030;2023-02-18T21:13:32;36;30;22
33948;PMS7003;20229;49.856;19.030;2023-02-18T21:18:35;35;30;22
33948;PMS7003;20229;49.856;19.030;2023-02-18T21:23:57;34;30;23
33948;PMS7003;20229;49.856;19.030;2023-02-18T21:29:02;33;30;22
33948;PMS7003;20229;49.856;19.030;2023-02-18T21:34:23;35;30;24
33948;PMS7003;20229;49.856;19.030;2023-02-18T21:39:28;38;32;24
33948;PMS7003;20229;49.856;19.030;2023-02-18T21:44:49;39;32;25
33948;PMS7003;20229;49.856;19.030;2023-02-18T21:49:52;33;29;22
33948;PMS7003;20229;49.856;19.030;2023-02-18T21:55:14;33;30;22
33948;PMS7003;20229;49.856;19.030;2023-02-18T22:00:18;32;29;21
33948;PMS7003;20229;49.856;19.030;2023-02-18T22:05:40;33;30;23
33948;PMS7003;20229;49.856;19.030;2023-02-18T22:10:44;33;29;22
33948;PMS7003;20229;49.856;19.030;2023-02-18T22:16:06;33;30;24
33948;PMS7003;20229;49.856;19.030;2023-02-18T22:21:09;33;29;22
33948;PMS7003;20229;49.856;19.030;2023-02-18T22:26:31;36;29;19
33948;PMS7003;20229;49.856;19.030;2023-02-18T22:31:35;38;32;22
33948;PMS7003;20229;49.856;19.030;2023-02-18T22:36:57;44;35;25
33948;PMS7003;20229;49.856;19.030;2023-02-18T22:42:01;37;31;23
33948;PMS7003;20229;49.856;19.030;2023-02-18T22:47:23;32;27;21
33948;PMS7003;20229;49.856;19.030;2023-02-18T22:52:26;27;24;20
33948;PMS7003;20229;49.856;19.030;2023-02-18T22:57:49;28;23;18
33948;PMS7003;20229;49.856;19.030;2023-02-18T23:02:52;29;25;19
33948;PMS7003;20229;49.856;19.030;2023-02-18T23:08:15;24;23;18
33948;PMS7003;20229;49.856;19.030;2023-02-18T23:13:18;30;27;22
33948;PMS7003;20229;49.856;19.030;2023-02-18T23:18:41;39;33;28
33948;PMS7003;20229;49.856;19.030;2023-02-18T23:23:44;35;29;24
33948;PMS7003;20229;49.856;19.030;2023-02-18T23:29:07;40;33;28
33948;PMS7003;20229;49.856;19.030;2023-02-18T23:34:11;39;33;28
33948;PMS7003;20229;49.856;19.030;2023-02-18T23:39:32;31;28;23
33948;PMS7003;20229;49.856;19.030;2023-02-18T23:44:36;34;31;26
33948;PMS7003;20229;49.856;19.030;2023-02-18T23:49:58;35;31;26
33948;PMS7003;20229;49.856;19.030;2023-02-18T23:55:02;26;24;22
